createdAt,value
2018-03-25T00:00:11.112Z,999.15
2018-03-25T00:01:11.138Z,999.16
2018-03-25T00:02:11.072Z,999.19
2018-03-25T00:03:11.051Z,999.18
2018-03-25T00:04:11.325Z,999.16
2018-03-25T00:05:11.003Z,999.14
2018-03-25T00:06:10.979Z,999.14
2018-03-25T00:07:11.007Z,999.16
2018-03-25T00:08:10.939Z,999.12
2018-03-25T00:09:10.916Z,999.14
2018-03-25T00:10:11.210Z,999.11
2018-03-25T00:11:10.885Z,999.13
2018-03-25T00:12:10.957Z,999.09
2018-03-25T00:13:10.894Z,999.10
2018-03-25T00:14:10.818Z,999.07
2018-03-25T00:15:10.799Z,999.08
2018-03-25T00:21:11.428Z,999.12
2018-03-25T00:22:10.663Z,999.16
2018-03-25T00:23:12.203Z,999.12
2018-03-25T00:24:10.623Z,999.15
2018-03-25T00:25:10.602Z,999.16
2018-03-25T00:26:10.582Z,999.14
2018-03-25T00:27:10.620Z,999.18
2018-03-25T00:28:10.898Z,999.19
2018-03-25T00:29:10.669Z,999.17
2018-03-25T00:30:10.509Z,999.17
2018-03-25T00:31:10.479Z,999.19
2018-03-25T00:32:10.458Z,999.17
2018-03-25T00:37:11.005Z,999.15
2018-03-25T00:38:10.329Z,999.15
2018-03-25T00:39:10.313Z,999.19
2018-03-25T00:40:10.304Z,999.16
2018-03-25T00:41:10.273Z,999.21
2018-03-25T00:42:10.296Z,999.17
2018-03-25T00:43:10.285Z,999.20
2018-03-25T00:44:10.517Z,999.22
2018-03-25T00:45:10.191Z,999.19
2018-03-25T00:46:10.170Z,999.20
2018-03-25T00:47:10.215Z,999.18
2018-03-25T00:53:10.383Z,999.19
2018-03-25T00:54:10.107Z,999.23
2018-03-25T00:55:09.985Z,999.20
2018-03-25T00:56:09.959Z,999.23
2018-03-25T00:57:10.043Z,999.23
2018-03-25T00:58:10.075Z,999.19
2018-03-25T01:01:10.186Z,999.18
2018-03-25T01:02:09.849Z,999.20
2018-03-25T01:03:09.922Z,999.21
2018-03-25T01:04:09.796Z,999.19
2018-03-25T01:05:09.880Z,999.23
2018-03-25T01:06:09.816Z,999.22
2018-03-25T01:08:10.039Z,999.24
2018-03-25T01:09:09.748Z,999.20
2018-03-25T01:10:09.695Z,999.23
2018-03-25T01:11:09.650Z,999.20
2018-03-25T01:12:09.673Z,999.16
2018-03-25T01:13:09.624Z,999.18
2018-03-25T01:14:09.957Z,999.16
2018-03-25T01:15:09.925Z,999.14
2018-03-25T01:16:09.561Z,999.15
2018-03-25T01:17:09.527Z,999.16
2018-03-25T01:18:09.609Z,999.15
2018-03-25T01:19:09.486Z,999.16
2018-03-25T01:20:09.767Z,999.15
2018-03-25T01:21:09.511Z,999.10
2018-03-25T01:22:09.484Z,999.13
2018-03-25T01:23:09.410Z,999.15
2018-03-25T01:24:09.393Z,999.14
2018-03-25T01:25:09.371Z,999.14
2018-03-25T01:26:09.647Z,999.12
2018-03-25T01:27:09.426Z,999.06
2018-03-25T01:28:09.304Z,999.08
2018-03-25T01:29:09.437Z,999.05
2018-03-25T01:30:09.265Z,999.05
2018-03-25T01:31:09.338Z,999.08
2018-03-25T01:32:09.521Z,999.06
2018-03-25T01:33:09.213Z,999.04
2018-03-25T01:34:09.178Z,999.07
2018-03-25T01:35:09.156Z,999.04
2018-03-25T01:36:09.142Z,999.04
2018-03-25T01:37:09.715Z,999.05
2018-03-25T01:38:09.406Z,999.06
2018-03-25T01:39:09.182Z,999.05
2018-03-25T01:40:09.151Z,999.06
2018-03-25T01:41:09.026Z,999.05
2018-03-25T01:42:09.016Z,999.03
2018-03-25T01:43:09.040Z,999.08
2018-03-25T01:45:09.360Z,999.05
2018-03-25T01:46:08.980Z,999.02
2018-03-25T01:47:08.914Z,999.01
2018-03-25T01:48:08.893Z,999.01
2018-03-25T01:50:08.854Z,998.98
2018-03-25T01:51:08.822Z,999.02
2018-03-25T01:52:09.162Z,999.01
2018-03-25T01:53:08.791Z,999.01
2018-03-25T01:54:08.763Z,999.00
2018-03-25T01:55:08.746Z,998.99
2018-03-25T01:56:08.719Z,998.99
2018-03-25T01:57:08.703Z,998.98
2018-03-25T01:58:08.783Z,998.98
2018-03-25T01:59:08.955Z,998.99
2018-03-25T02:00:08.638Z,998.98
2018-03-25T02:01:08.622Z,998.97
2018-03-25T02:02:08.745Z,998.97
2018-03-25T02:03:08.676Z,998.97
2018-03-25T02:04:08.549Z,998.95
2018-03-25T02:05:08.538Z,998.91
2018-03-25T02:06:08.817Z,998.92
2018-03-25T02:08:08.573Z,998.94
2018-03-25T02:10:08.531Z,998.97
2018-03-25T02:11:08.411Z,999.00
2018-03-25T02:12:08.459Z,999.00
2018-03-25T02:13:08.739Z,998.99
2018-03-25T02:15:08.931Z,999.07
2018-03-25T02:16:08.455Z,999.05
2018-03-25T02:17:08.282Z,999.09
2018-03-25T02:18:10.126Z,999.07
2018-03-25T02:19:08.243Z,999.09
2018-03-25T02:20:08.616Z,999.14
2018-03-25T02:21:08.395Z,999.07
2018-03-25T02:22:08.329Z,999.10
2018-03-25T02:23:08.252Z,999.10
2018-03-25T02:25:08.121Z,999.08
2018-03-25T02:26:08.093Z,999.06
2018-03-25T02:27:08.419Z,999.06
2018-03-25T02:28:08.051Z,999.08
2018-03-25T02:29:08.042Z,999.11
2018-03-25T02:30:08.015Z,999.11
2018-03-25T02:31:08.089Z,999.11
2018-03-25T02:32:07.977Z,999.12
2018-03-25T02:33:08.245Z,999.09
2018-03-25T02:34:07.930Z,999.07
2018-03-25T02:39:08.271Z,999.11
2018-03-25T02:40:07.806Z,999.11
2018-03-25T02:41:07.887Z,999.11
2018-03-25T02:42:07.750Z,999.07
2018-03-25T02:43:07.733Z,999.08
2018-03-25T02:44:07.713Z,999.10
2018-03-25T02:45:08.044Z,999.11
2018-03-25T02:46:07.772Z,999.07
2018-03-25T02:48:07.668Z,999.11
2018-03-25T02:49:07.609Z,999.09
2018-03-25T02:50:07.577Z,999.13
2018-03-25T02:51:07.942Z,999.10
2018-03-25T02:52:07.557Z,999.08
2018-03-25T02:58:07.770Z,999.13
2018-03-25T02:59:07.990Z,999.15
2018-03-25T03:00:07.375Z,999.15
2018-03-25T03:01:07.347Z,999.18
2018-03-25T03:02:07.340Z,999.15
2018-03-25T03:03:07.311Z,999.17
2018-03-25T03:04:07.292Z,999.14
2018-03-25T03:05:07.622Z,999.15
2018-03-25T03:06:07.252Z,999.20
2018-03-25T03:07:07.223Z,999.21
2018-03-25T03:08:07.261Z,999.22
2018-03-25T03:09:07.183Z,999.25
2018-03-25T03:10:07.150Z,999.23
2018-03-25T03:11:07.144Z,999.26
2018-03-25T03:12:07.516Z,999.24
2018-03-25T03:13:07.141Z,999.26
2018-03-25T03:14:07.064Z,999.27
2018-03-25T03:15:07.038Z,999.28
2018-03-25T03:16:09.873Z,999.28
2018-03-25T03:17:06.997Z,999.33
2018-03-25T03:18:06.967Z,999.32
2018-03-25T03:19:07.300Z,999.33
2018-03-25T03:20:06.935Z,999.35
2018-03-25T03:21:06.965Z,999.33
2018-03-25T03:22:06.887Z,999.39
2018-03-25T03:23:06.862Z,999.41
2018-03-25T03:24:06.848Z,999.39
2018-03-25T03:25:06.925Z,999.38
2018-03-25T03:26:07.149Z,999.43
2018-03-25T03:27:06.881Z,999.42
2018-03-25T03:28:06.856Z,999.42
2018-03-25T03:32:07.190Z,999.46
2018-03-25T03:33:06.741Z,999.47
2018-03-25T03:35:06.645Z,999.45
2018-03-25T03:36:06.582Z,999.44
2018-03-25T03:37:06.552Z,999.43
2018-03-25T03:38:06.580Z,999.47
2018-03-25T03:39:06.806Z,999.46
2018-03-25T03:40:06.475Z,999.43
2018-03-25T03:41:06.464Z,999.43
2018-03-25T03:42:06.547Z,999.43
2018-03-25T03:43:06.465Z,999.44
2018-03-25T03:44:06.398Z,999.41
2018-03-25T03:45:06.427Z,999.42
2018-03-25T03:46:06.703Z,999.38
2018-03-25T03:47:06.329Z,999.41
2018-03-25T03:48:06.309Z,999.42
2018-03-25T03:49:06.278Z,999.43
2018-03-25T03:50:06.260Z,999.43
2018-03-25T03:51:06.234Z,999.45
2018-03-25T03:52:06.563Z,999.44
2018-03-25T03:53:06.195Z,999.42
2018-03-25T03:54:06.167Z,999.47
2018-03-25T03:55:06.252Z,999.47
2018-03-25T03:56:06.225Z,999.48
2018-03-25T03:57:06.100Z,999.46
2018-03-25T03:58:06.429Z,999.45
2018-03-25T03:59:06.157Z,999.46
2018-03-25T04:00:06.036Z,999.46
2018-03-25T04:01:06.069Z,999.46
2018-03-25T04:03:05.966Z,999.49
2018-03-25T04:04:06.039Z,999.49
2018-03-25T04:05:06.267Z,999.50
2018-03-25T04:06:05.939Z,999.51
2018-03-25T04:07:05.868Z,999.50
2018-03-25T04:08:05.855Z,999.51
2018-03-25T04:09:05.893Z,999.54
2018-03-25T04:10:05.806Z,999.52
2018-03-25T04:11:06.106Z,999.56
2018-03-25T04:12:06.015Z,999.55
2018-03-25T04:13:05.738Z,999.51
2018-03-25T04:16:05.675Z,999.56
2018-03-25T04:17:05.646Z,999.58
2018-03-25T04:18:05.962Z,999.60
2018-03-25T04:19:05.596Z,999.60
2018-03-25T04:20:05.573Z,999.57
2018-03-25T04:21:05.649Z,999.56
2018-03-25T04:22:05.528Z,999.59
2018-03-25T04:23:05.500Z,999.56
2018-03-25T04:24:05.777Z,999.56
2018-03-25T04:25:05.467Z,999.57
2018-03-25T04:26:05.432Z,999.57
2018-03-25T04:27:05.467Z,999.58
2018-03-25T04:28:05.397Z,999.57
2018-03-25T04:29:05.374Z,999.59
2018-03-25T04:30:05.352Z,999.60
2018-03-25T04:31:05.624Z,999.61
2018-03-25T04:32:05.295Z,999.56
2018-03-25T04:33:05.330Z,999.57
2018-03-25T04:34:05.263Z,999.60
2018-03-25T04:35:05.226Z,999.61
2018-03-25T04:36:05.257Z,999.56
2018-03-25T04:37:05.280Z,999.57
2018-03-25T04:38:05.452Z,999.60
2018-03-25T04:39:05.492Z,999.56
2018-03-25T04:40:05.111Z,999.58
2018-03-25T04:41:05.089Z,999.65
2018-03-25T04:42:05.266Z,999.61
2018-03-25T04:43:05.041Z,999.66
2018-03-25T04:44:05.017Z,999.62
2018-03-25T04:47:07.941Z,999.65
2018-03-25T04:48:05.016Z,999.67
2018-03-25T04:49:04.892Z,999.67
2018-03-25T04:50:04.876Z,999.66
2018-03-25T04:51:04.843Z,999.67
2018-03-25T04:53:05.115Z,999.70
2018-03-25T04:54:04.899Z,999.67
2018-03-25T04:55:04.752Z,999.63
2018-03-25T04:56:04.765Z,999.67
2018-03-25T04:57:04.719Z,999.66
2018-03-25T04:58:04.694Z,999.67
2018-03-25T04:59:04.657Z,999.67
2018-03-25T05:00:05.081Z,999.65
2018-03-25T05:01:04.615Z,999.63
2018-03-25T05:02:04.685Z,999.62
2018-03-25T05:03:05.024Z,999.64
2018-03-25T05:04:04.536Z,999.62
2018-03-25T05:05:04.509Z,999.67
2018-03-25T05:06:04.489Z,999.65
2018-03-25T05:07:04.767Z,999.69
2018-03-25T05:08:04.459Z,999.66
2018-03-25T05:09:04.522Z,999.66
2018-03-25T05:10:04.548Z,999.67
2018-03-25T05:11:04.465Z,999.68
2018-03-25T05:17:04.651Z,999.67
2018-03-25T05:18:04.333Z,999.68
2018-03-25T05:19:04.320Z,999.69
2018-03-25T05:20:04.230Z,999.66
2018-03-25T05:21:04.152Z,999.68
2018-03-25T05:22:04.194Z,999.68
2018-03-25T05:23:04.417Z,999.66
2018-03-25T05:24:04.224Z,999.69
2018-03-25T05:25:04.259Z,999.68
2018-03-25T05:26:04.033Z,999.65
2018-03-25T05:27:04.012Z,999.62
2018-03-25T05:28:03.989Z,999.67
2018-03-25T05:29:04.362Z,999.71
2018-03-25T05:30:03.989Z,999.71
2018-03-25T05:31:03.916Z,999.71
2018-03-25T05:32:04.056Z,999.69
2018-03-25T05:33:04.623Z,999.74
2018-03-25T05:34:03.869Z,999.72
2018-03-25T05:35:04.109Z,999.71
2018-03-25T05:36:03.789Z,999.73
2018-03-25T05:37:03.773Z,999.70
2018-03-25T05:38:03.743Z,999.71
2018-03-25T05:39:03.829Z,999.67
2018-03-25T05:40:03.740Z,999.73
2018-03-25T05:41:03.979Z,999.78
2018-03-25T05:42:03.695Z,999.75
2018-03-25T05:43:03.625Z,999.76
2018-03-25T05:44:03.654Z,999.79
2018-03-25T05:45:03.598Z,999.78
2018-03-25T05:46:03.609Z,999.74
2018-03-25T05:47:04.942Z,999.76
2018-03-25T05:48:03.500Z,999.74
2018-03-25T05:49:03.494Z,999.77
2018-03-25T05:50:03.569Z,999.76
2018-03-25T05:51:03.584Z,999.71
2018-03-25T05:52:03.606Z,999.73
2018-03-25T05:53:03.503Z,999.75
2018-03-25T05:54:04.248Z,999.71
2018-03-25T05:55:03.409Z,999.71
2018-03-25T05:57:03.625Z,999.78
2018-03-25T05:58:03.776Z,999.79
2018-03-25T05:59:03.585Z,999.82
2018-03-25T06:00:03.433Z,999.86
2018-03-25T06:01:03.612Z,999.92
2018-03-25T06:02:03.213Z,999.91
2018-03-25T06:03:03.168Z,999.91
2018-03-25T06:04:03.109Z,999.90
2018-03-25T06:05:03.095Z,999.94
2018-03-25T06:06:03.167Z,999.94
2018-03-25T06:07:03.062Z,999.97
2018-03-25T06:08:03.382Z,1000.02
2018-03-25T06:09:03.098Z,1000.00
2018-03-25T06:10:03.002Z,999.99
2018-03-25T06:11:03.048Z,1000.04
2018-03-25T06:12:02.984Z,999.99
2018-03-25T06:13:02.905Z,1000.00
2018-03-25T06:14:02.993Z,1000.04
2018-03-25T06:15:03.163Z,1000.04
2018-03-25T06:16:03.492Z,1000.05
2018-03-25T06:17:02.902Z,1000.05
2018-03-25T06:18:02.877Z,1000.04
2018-03-25T06:19:02.853Z,1000.08
2018-03-25T06:20:02.802Z,1000.10
2018-03-25T06:21:02.735Z,1000.11
2018-03-25T06:22:03.090Z,1000.10
2018-03-25T06:23:02.673Z,1000.15
2018-03-25T06:24:02.636Z,1000.15
2018-03-25T06:25:02.622Z,1000.18
2018-03-25T06:27:02.703Z,1000.14
2018-03-25T06:28:02.551Z,1000.15
2018-03-25T06:29:02.865Z,1000.18
2018-03-25T06:30:02.525Z,1000.20
2018-03-25T06:31:02.491Z,1000.21
2018-03-25T06:32:02.577Z,1000.25
2018-03-25T06:33:03.033Z,1000.25
2018-03-25T06:34:02.404Z,1000.24
2018-03-25T06:35:02.444Z,1000.27
2018-03-25T06:36:02.679Z,1000.28
2018-03-25T06:37:02.335Z,1000.34
2018-03-25T06:38:02.314Z,1000.32
2018-03-25T06:39:02.571Z,1000.33
2018-03-25T06:40:02.326Z,1000.39
2018-03-25T06:41:02.274Z,1000.33
2018-03-25T06:42:02.580Z,1000.34
2018-03-25T06:43:02.240Z,1000.39
2018-03-25T06:44:02.272Z,1000.44
2018-03-25T06:45:02.358Z,1000.42
2018-03-25T06:46:02.227Z,1000.42
2018-03-25T06:47:02.394Z,1000.48
2018-03-25T06:50:02.481Z,1000.55
2018-03-25T06:51:02.212Z,1000.56
2018-03-25T06:53:01.971Z,1000.54
2018-03-25T06:54:01.967Z,1000.59
2018-03-25T06:55:02.015Z,1000.60
2018-03-25T06:56:02.243Z,1000.68
2018-03-25T06:57:01.860Z,1000.68
2018-03-25T06:58:01.831Z,1000.67
2018-03-25T06:59:01.815Z,1000.70
2018-03-25T07:00:01.823Z,1000.73
2018-03-25T07:01:02.617Z,1000.71
2018-03-25T07:02:02.132Z,1000.72
2018-03-25T07:03:01.824Z,1000.73
2018-03-25T07:04:01.715Z,1000.74
2018-03-25T07:05:01.797Z,1000.77
2018-03-25T07:06:01.715Z,1000.75
2018-03-25T07:07:01.635Z,1000.77
2018-03-25T07:11:02.007Z,1000.82
2018-03-25T07:12:01.527Z,1000.81
2018-03-25T07:13:01.512Z,1000.85
2018-03-25T07:14:01.583Z,1000.83
2018-03-25T07:15:01.467Z,1000.89
2018-03-25T07:16:01.494Z,1000.84
2018-03-25T07:17:01.429Z,1000.87
2018-03-25T07:18:01.751Z,1000.91
2018-03-25T07:19:01.376Z,1000.95
2018-03-25T07:20:01.446Z,1000.95
2018-03-25T07:21:01.441Z,1000.98
2018-03-25T07:22:01.423Z,1001.01
2018-03-25T07:26:01.539Z,1001.05
2018-03-25T07:27:01.275Z,1001.04
2018-03-25T07:28:01.607Z,1001.09
2018-03-25T07:29:01.196Z,1001.03
2018-03-25T07:30:01.480Z,1001.09
2018-03-25T07:31:01.145Z,1001.09
2018-03-25T07:32:01.118Z,1001.12
2018-03-25T07:33:01.772Z,1001.17
2018-03-25T07:36:01.144Z,1001.19
2018-03-25T07:40:01.321Z,1001.30
2018-03-25T07:41:00.959Z,1001.28
2018-03-25T07:42:00.963Z,1001.30
2018-03-25T07:43:00.934Z,1001.37
2018-03-25T07:44:00.907Z,1001.56
2018-03-25T07:45:00.884Z,1001.38
2018-03-25T07:46:00.967Z,1001.37
2018-03-25T07:47:00.864Z,1001.37
2018-03-25T07:48:00.836Z,1001.41
2018-03-25T07:49:00.813Z,1001.48
2018-03-25T07:50:00.982Z,1001.49
2018-03-25T07:51:00.835Z,1001.56
2018-03-25T07:52:00.763Z,1001.57
2018-03-25T07:53:01.043Z,1001.53
2018-03-25T07:54:00.850Z,1001.65
2018-03-25T07:55:00.757Z,1001.90
2018-03-25T07:56:00.770Z,1001.57
2018-03-25T07:57:00.790Z,1001.71
2018-03-25T07:58:00.776Z,1001.71
2018-03-25T07:59:00.673Z,1001.93
2018-03-25T08:00:00.938Z,1001.91
2018-03-25T08:01:00.717Z,1001.90
2018-03-25T08:02:00.601Z,1001.81
2018-03-25T08:05:00.639Z,1001.88
2018-03-25T08:08:00.956Z,1001.67
2018-03-25T08:10:00.497Z,1001.63
2018-03-25T08:11:00.561Z,1001.81
2018-03-25T08:12:00.505Z,1001.88
2018-03-25T08:13:00.445Z,1001.71
2018-03-25T08:14:00.718Z,1001.99
2018-03-25T08:16:00.392Z,1001.86
2018-03-25T08:17:00.422Z,1001.85
2018-03-25T08:18:00.370Z,1001.76
2018-03-25T08:19:00.363Z,1001.75
2018-03-25T08:20:00.643Z,1001.88
2018-03-25T08:21:00.829Z,1001.86
2018-03-25T08:22:00.304Z,1001.89
2018-03-25T08:26:00.553Z,1001.77
2018-03-25T08:27:00.375Z,1001.79
2018-03-25T08:28:00.281Z,1001.83
2018-03-25T08:29:00.215Z,1001.82
2018-03-25T08:30:00.409Z,1001.84
2018-03-25T08:31:00.328Z,1001.85
2018-03-25T08:32:00.484Z,1001.90
2018-03-25T08:33:00.166Z,1001.89
2018-03-25T08:34:00.164Z,1001.90
2018-03-25T08:36:00.184Z,1001.92
2018-03-25T08:37:00.118Z,1002.03
2018-03-25T08:39:00.391Z,1002.13
2018-03-25T08:40:00.090Z,1002.06
2018-03-25T08:41:00.069Z,1001.95
2018-03-25T08:42:00.112Z,1001.98
2018-03-25T08:43:00.149Z,1001.92
2018-03-25T08:44:00.053Z,1001.97
2018-03-25T08:45:00.021Z,1001.98
2018-03-25T08:46:00.308Z,1002.06
2018-03-25T08:47:00.020Z,1002.03
2018-03-25T08:48:00.037Z,1002.04
2018-03-25T08:48:59.975Z,1002.02
2018-03-25T08:51:00.057Z,1002.05
2018-03-25T08:51:59.942Z,1002.05
2018-03-25T08:53:00.309Z,1002.08
2018-03-25T08:54:00.048Z,1002.09
2018-03-25T08:54:59.917Z,1002.11
2018-03-25T08:55:59.897Z,1002.09
2018-03-25T08:56:59.894Z,1002.16
2018-03-25T08:57:59.872Z,1002.19
2018-03-25T08:59:00.021Z,1002.12
2018-03-25T09:00:00.160Z,1002.16
2018-03-25T09:00:59.949Z,1002.15
2018-03-25T09:01:59.837Z,1002.19
2018-03-25T09:02:59.842Z,1002.12
2018-03-25T09:03:59.822Z,1002.10
2018-03-25T09:04:59.851Z,1002.04
2018-03-25T09:05:59.851Z,1002.15
2018-03-25T09:06:59.787Z,1002.10
2018-03-25T09:07:59.780Z,1002.11
2018-03-25T09:08:59.959Z,1002.12
2018-03-25T09:10:59.734Z,1002.16
2018-03-25T09:11:59.732Z,1002.19
2018-03-25T09:13:00.060Z,1002.17
2018-03-25T09:14:00.163Z,1002.24
2018-03-25T09:14:59.730Z,1002.18
2018-03-25T09:15:59.695Z,1002.18
2018-03-25T09:21:00.051Z,1002.10
2018-03-25T09:21:59.663Z,1002.24
2018-03-25T09:22:59.630Z,1002.37
2018-03-25T09:23:59.634Z,1002.25
2018-03-25T09:24:59.613Z,1002.03
2018-03-25T09:25:59.756Z,1002.05
2018-03-25T09:26:59.680Z,1002.11
2018-03-25T09:27:59.893Z,1002.11
2018-03-25T09:28:59.579Z,1002.09
2018-03-25T09:29:59.677Z,1001.99
2018-03-25T09:32:59.598Z,1001.93
2018-03-25T09:33:59.537Z,1002.21
2018-03-25T09:34:59.830Z,1002.33
2018-03-25T09:35:59.632Z,1002.17
2018-03-25T09:36:59.510Z,1002.23
2018-03-25T09:39:59.482Z,1002.12
2018-03-25T09:40:59.500Z,1002.44
2018-03-25T09:41:59.819Z,1002.38
2018-03-25T09:42:59.463Z,1002.26
2018-03-25T09:43:59.530Z,1002.37
2018-03-25T09:44:59.432Z,1002.33
2018-03-25T09:45:59.435Z,1002.43
2018-03-25T09:46:59.422Z,1002.31
2018-03-25T09:47:59.819Z,1002.04
2018-03-25T09:48:59.400Z,1002.44
2018-03-25T09:49:59.398Z,1002.34
2018-03-25T09:50:59.415Z,1002.17
2018-03-25T09:51:59.545Z,1002.43
2018-03-25T09:52:59.739Z,1002.33
2018-03-25T09:53:59.671Z,1002.40
2018-03-25T09:55:59.350Z,1002.47
2018-03-25T09:56:59.348Z,1002.30
2018-03-25T09:59:59.687Z,1002.30
2018-03-25T10:00:59.312Z,1002.27
2018-03-25T10:01:59.306Z,1002.00
2018-03-25T10:02:59.368Z,1002.24
2018-03-25T10:03:59.289Z,1002.51
2018-03-25T10:04:59.293Z,1002.50
2018-03-25T10:05:59.625Z,1002.48
2018-03-25T10:06:59.264Z,1002.47
2018-03-25T10:07:59.264Z,1002.42
2018-03-25T10:08:59.272Z,1002.43
2018-03-25T10:09:59.313Z,1002.38
2018-03-25T10:10:59.238Z,1002.42
2018-03-25T10:13:02.030Z,1002.42
2018-03-25T10:13:59.239Z,1002.40
2018-03-25T10:14:59.206Z,1002.40
2018-03-25T10:15:59.248Z,1002.39
2018-03-25T10:16:59.203Z,1002.41
2018-03-25T10:17:59.188Z,1002.36
2018-03-25T10:18:59.598Z,1002.32
2018-03-25T10:19:59.223Z,1002.28
2018-03-25T10:20:59.172Z,1002.28
2018-03-25T10:21:59.164Z,1002.26
2018-03-25T10:22:59.261Z,1002.26
2018-03-25T10:23:59.151Z,1002.31
2018-03-25T10:24:59.238Z,1002.25
2018-03-25T10:25:59.437Z,1002.27
2018-03-25T10:26:59.127Z,1002.28
2018-03-25T10:27:59.112Z,1002.34
2018-03-25T10:28:59.110Z,1002.28
2018-03-25T10:29:59.105Z,1002.27
2018-03-25T10:30:59.204Z,1002.24
2018-03-25T10:31:59.143Z,1002.23
2018-03-25T10:32:59.383Z,1002.28
2018-03-25T10:33:59.086Z,1002.28
2018-03-25T10:34:59.087Z,1002.29
2018-03-25T10:35:59.083Z,1002.26
2018-03-25T10:36:59.065Z,1002.21
2018-03-25T10:37:59.668Z,1002.18
2018-03-25T10:40:59.442Z,1002.12
2018-03-25T10:41:59.041Z,1002.14
2018-03-25T10:42:59.041Z,1002.26
2018-03-25T10:43:59.129Z,1002.22
2018-03-25T10:44:59.114Z,1002.21
2018-03-25T10:45:59.039Z,1002.21
2018-03-25T10:46:59.010Z,1002.26
2018-03-25T10:47:59.305Z,1002.19
2018-03-25T10:48:59.050Z,1002.16
2018-03-25T10:49:58.995Z,1002.15
2018-03-25T10:50:58.994Z,1002.19
2018-03-25T10:51:59.039Z,1002.17
2018-03-25T10:52:58.978Z,1002.19
2018-03-25T10:53:58.986Z,1002.19
2018-03-25T10:54:59.623Z,1002.11
2018-03-25T10:55:59.013Z,1002.13
2018-03-25T10:56:59.724Z,1002.14
2018-03-25T10:58:58.958Z,1002.05
2018-03-25T10:59:59.020Z,1002.13
2018-03-25T11:00:59.299Z,1002.17
2018-03-25T11:01:58.941Z,1002.18
2018-03-25T11:02:59.250Z,1002.19
2018-03-25T11:03:59.038Z,1002.25
2018-03-25T11:04:58.944Z,1002.30
2018-03-25T11:05:58.934Z,1002.22
2018-03-25T11:06:59.058Z,1002.15
2018-03-25T11:07:59.276Z,1002.18
2018-03-25T11:08:58.940Z,1002.18
2018-03-25T11:09:58.959Z,1002.19
2018-03-25T11:10:58.962Z,1002.23
2018-03-25T11:11:58.958Z,1002.24
2018-03-25T11:12:58.897Z,1002.21
2018-03-25T11:13:59.243Z,1002.29
2018-03-25T11:14:58.890Z,1002.29
2018-03-25T11:15:58.886Z,1001.97
2018-03-25T11:16:58.935Z,1002.36
2018-03-25T11:17:58.978Z,1002.30
2018-03-25T11:18:59.226Z,1002.09
2018-03-25T11:19:58.889Z,1002.20
2018-03-25T11:20:58.883Z,1001.74
2018-03-25T11:21:58.880Z,1002.03
2018-03-25T11:22:58.869Z,1001.82
2018-03-25T11:23:58.868Z,1001.66
2018-03-25T11:24:58.971Z,1002.10
2018-03-25T11:25:59.154Z,1002.26
2018-03-25T11:26:58.850Z,1002.45
2018-03-25T11:27:58.843Z,1002.51
2018-03-25T11:28:58.880Z,1002.57
2018-03-25T11:31:59.131Z,1002.61
2018-03-25T11:32:58.811Z,1002.69
2018-03-25T11:33:58.800Z,1002.69
2018-03-25T11:34:59.408Z,1002.73
2018-03-25T11:35:58.807Z,1002.72
2018-03-25T11:36:58.792Z,1002.72
2018-03-25T11:37:59.085Z,1002.64
2018-03-25T11:38:58.788Z,1002.68
2018-03-25T11:39:58.826Z,1002.77
2018-03-25T11:40:58.820Z,1002.79
2018-03-25T11:41:58.842Z,1002.78
2018-03-25T11:42:58.864Z,1002.75
2018-03-25T11:43:59.059Z,1002.85
2018-03-25T11:44:58.837Z,1002.91
2018-03-25T11:45:58.841Z,1002.97
2018-03-25T11:46:58.797Z,1002.92
2018-03-25T11:47:58.836Z,1003.02
2018-03-25T11:48:58.730Z,1002.87
2018-03-25T11:49:59.033Z,1002.90
2018-03-25T11:50:58.818Z,1003.00
2018-03-25T11:51:58.820Z,1003.06
2018-03-25T11:52:58.815Z,1003.06
2018-03-25T11:53:58.720Z,1002.48
2018-03-25T11:54:58.714Z,1003.03
2018-03-25T11:56:59.070Z,1002.14
2018-03-25T11:58:58.864Z,1001.88
2018-03-25T11:59:58.691Z,1001.82
2018-03-25T12:00:58.685Z,1001.82
2018-03-25T12:01:58.680Z,1001.81
2018-03-25T12:02:58.828Z,1001.79
2018-03-25T12:03:58.672Z,1001.77
2018-03-25T12:04:58.816Z,1001.73
2018-03-25T12:05:58.662Z,1001.77
2018-03-25T12:06:59.288Z,1001.77
2018-03-25T12:07:58.652Z,1001.75
2018-03-25T12:08:58.717Z,1001.95
2018-03-25T12:09:58.925Z,1001.87
2018-03-25T12:10:58.618Z,1003.00
2018-03-25T12:11:58.623Z,1002.96
2018-03-25T12:12:58.660Z,1002.98
2018-03-25T12:13:58.614Z,1003.03
2018-03-25T12:14:58.613Z,1002.94
2018-03-25T12:15:58.600Z,1002.94
2018-03-25T12:17:58.715Z,1002.93
2018-03-25T12:18:58.705Z,1002.92
2018-03-25T12:19:58.660Z,1002.86
2018-03-25T12:20:58.553Z,1002.86
2018-03-25T12:21:58.627Z,1002.83
2018-03-25T12:22:58.591Z,1002.54
2018-03-25T12:23:58.889Z,1001.82
2018-03-25T12:25:58.623Z,1001.76
2018-03-25T12:26:58.520Z,1002.20
2018-03-25T12:29:58.900Z,1001.70
2018-03-25T12:30:58.493Z,1001.72
2018-03-25T12:31:58.588Z,1001.65
2018-03-25T12:32:58.483Z,1001.66
2018-03-25T12:33:58.575Z,1001.56
2018-03-25T12:34:58.466Z,1001.55
2018-03-25T12:35:58.462Z,1001.52
2018-03-25T12:36:58.805Z,1001.46
2018-03-25T12:38:58.492Z,1001.51
2018-03-25T12:39:58.540Z,1001.53
2018-03-25T12:40:58.442Z,1001.52
2018-03-25T12:43:58.752Z,1001.48
2018-03-25T12:44:58.403Z,1001.44
2018-03-25T12:45:58.391Z,1001.80
2018-03-25T12:46:58.479Z,1001.46
2018-03-25T12:47:58.421Z,1001.39
2018-03-25T12:48:58.359Z,1001.41
2018-03-25T12:49:58.392Z,1001.45
2018-03-25T12:50:58.646Z,1001.51
2018-03-25T12:51:58.336Z,1001.83
2018-03-25T12:52:58.927Z,1002.11
2018-03-25T12:53:58.308Z,1003.22
2018-03-25T12:54:58.323Z,1001.89
2018-03-25T12:55:58.303Z,1003.42
2018-03-25T12:56:58.604Z,1003.35
2018-03-25T12:57:58.298Z,1003.19
2018-03-25T12:58:58.319Z,1001.83
2018-03-25T12:59:58.486Z,1001.81
2018-03-25T13:00:58.355Z,1002.51
2018-03-25T13:02:58.531Z,1003.17
2018-03-25T13:03:58.222Z,1003.11
2018-03-25T13:04:58.268Z,1002.61
2018-03-25T13:05:58.212Z,1001.69
2018-03-25T13:06:58.194Z,1001.73
2018-03-25T13:07:58.189Z,1001.64
2018-03-25T13:08:58.475Z,1001.56
2018-03-25T13:09:58.167Z,1001.54
2018-03-25T13:10:58.261Z,1001.55
2018-03-25T13:11:58.204Z,1001.55
2018-03-25T13:12:58.149Z,1001.54
2018-03-25T13:13:58.146Z,1001.54
2018-03-25T13:14:58.544Z,1001.52
2018-03-25T13:15:58.124Z,1001.51
2018-03-25T13:16:58.124Z,1001.75
2018-03-25T13:17:58.194Z,1001.56
2018-03-25T13:18:58.096Z,1001.52
2018-03-25T13:19:58.095Z,1001.53
2018-03-25T13:20:58.778Z,1001.50
2018-03-25T13:21:58.076Z,1001.50
2018-03-25T13:24:58.145Z,1001.48
2018-03-25T13:25:58.074Z,1001.44
2018-03-25T13:26:58.375Z,1001.46
2018-03-25T13:27:58.002Z,1001.46
2018-03-25T13:28:58.009Z,1001.51
2018-03-25T13:29:57.982Z,1001.56
2018-03-25T13:30:58.034Z,1001.73
2018-03-25T13:31:57.979Z,1001.69
2018-03-25T13:32:57.987Z,1001.48
2018-03-25T13:33:58.259Z,1001.54
2018-03-25T13:34:57.934Z,1001.51
2018-03-25T13:35:57.927Z,1001.49
2018-03-25T13:36:58.208Z,1001.50
2018-03-25T13:37:57.905Z,1001.50
2018-03-25T13:38:58.204Z,1001.53
2018-03-25T13:39:57.953Z,1001.49
2018-03-25T13:40:58.288Z,1001.50
2018-03-25T13:41:57.971Z,1001.50
2018-03-25T13:42:57.851Z,1001.92
2018-03-25T13:43:57.858Z,1002.14
2018-03-25T13:44:57.943Z,1002.26
2018-03-25T13:45:57.818Z,1002.16
2018-03-25T13:46:57.823Z,1002.21
2018-03-25T13:47:58.100Z,1002.28
2018-03-25T13:48:57.801Z,1002.17
2018-03-25T13:49:58.142Z,1002.19
2018-03-25T13:50:57.786Z,1002.25
2018-03-25T13:51:57.865Z,1002.24
2018-03-25T13:52:57.765Z,1002.27
2018-03-25T13:53:57.771Z,1002.15
2018-03-25T13:54:58.049Z,1002.19
2018-03-25T13:55:57.787Z,1001.96
2018-03-25T13:56:57.730Z,1001.55
2018-03-25T13:57:57.725Z,1001.55
2018-03-25T13:58:57.717Z,1001.50
2018-03-25T13:59:57.709Z,1001.50
2018-03-25T14:00:57.686Z,1001.44